sensor_id;sensor_type;location;lat;lon;timestamp;P1;durP1;ratioP1;P2;durP2;ratioP2
68176;SDS011;56478;50.982;7.032;2023-08-31T00:02:01;5.57;;;3.17;;
68176;SDS011;56478;50.982;7.032;2023-08-31T00:04:28;3.63;;;2.97;;
68176;SDS011;56478;50.982;7.032;2023-08-31T00:06:54;7.43;;;3.40;;
68176;SDS011;56478;50.982;7.032;2023-08-31T00:09:22;6.60;;;3.53;;
68176;SDS011;56478;50.982;7.032;2023-08-31T00:11:50;6.28;;;3.53;;
68176;SDS011;56478;50.982;7.032;2023-08-31T00:14:16;5.18;;;3.50;;
68176;SDS011;56478;50.982;7.032;2023-08-31T00:16:42;11.48;;;3.65;;
68176;SDS011;56478;50.982;7.032;2023-08-31T00:19:11;9.80;;;3.67;;
68176;SDS011;56478;50.982;7.032;2023-08-31T00:21:37;9.10;;;3.60;;
68176;SDS011;56478;50.982;7.032;2023-08-31T00:24:03;10.13;;;3.55;;
68176;SDS011;56478;50.982;7.032;2023-08-31T00:26:30;6.35;;;3.55;;
68176;SDS011;56478;50.982;7.032;2023-08-31T00:28:56;6.65;;;3.50;;
68176;SDS011;56478;50.982;7.032;2023-08-31T00:31:23;6.82;;;3.10;;
68176;SDS011;56478;50.982;7.032;2023-08-31T00:33:49;6.72;;;3.47;;
68176;SDS011;56478;50.982;7.032;2023-08-31T00:36:15;7.03;;;3.60;;
68176;SDS011;56478;50.982;7.032;2023-08-31T00:38:42;6.32;;;3.40;;
68176;SDS011;56478;50.982;7.032;2023-08-31T00:41:07;10.63;;;3.67;;
68176;SDS011;56478;50.982;7.032;2023-08-31T00:43:33;6.40;;;3.28;;
68176;SDS011;56478;50.982;7.032;2023-08-31T00:45:59;9.45;;;3.47;;
68176;SDS011;56478;50.982;7.032;2023-08-31T00:48:24;5.75;;;3.20;;
68176;SDS011;56478;50.982;7.032;2023-08-31T00:50:50;4.97;;;3.20;;
68176;SDS011;56478;50.982;7.032;2023-08-31T00:53:16;8.70;;;3.50;;
68176;SDS011;56478;50.982;7.032;2023-08-31T00:55:44;8.43;;;3.45;;
68176;SDS011;56478;50.982;7.032;2023-08-31T00:58:10;9.30;;;3.50;;
68176;SDS011;56478;50.982;7.032;2023-08-31T01:06:12;5.70;;;3.30;;
68176;SDS011;56478;50.982;7.032;2023-08-31T01:08:47;7.03;;;3.38;;
68176;SDS011;56478;50.982;7.032;2023-08-31T01:11:23;11.07;;;3.47;;
68176;SDS011;56478;50.982;7.032;2023-08-31T01:14:07;5.10;;;3.23;;
68176;SDS011;56478;50.982;7.032;2023-08-31T01:16:41;4.90;;;3.15;;
68176;SDS011;56478;50.982;7.032;2023-08-31T01:19:52;5.60;;;3.42;;
68176;SDS011;56478;50.982;7.032;2023-08-31T01:22:05;6.28;;;3.45;;
68176;SDS011;56478;50.982;7.032;2023-08-31T01:24:36;6.13;;;3.13;;
68176;SDS011;56478;50.982;7.032;2023-08-31T01:27:02;6.25;;;3.50;;
68176;SDS011;56478;50.982;7.032;2023-08-31T01:29:29;7.63;;;3.08;;
68176;SDS011;56478;50.982;7.032;2023-08-31T01:31:55;5.03;;;3.40;;
68176;SDS011;56478;50.982;7.032;2023-08-31T01:34:20;6.43;;;3.22;;
68176;SDS011;56478;50.982;7.032;2023-08-31T01:36:50;6.50;;;3.45;;
68176;SDS011;56478;50.982;7.032;2023-08-31T01:39:26;7.15;;;3.38;;
68176;SDS011;56478;50.982;7.032;2023-08-31T01:42:00;6.03;;;3.72;;
68176;SDS011;56478;50.982;7.032;2023-08-31T01:44:30;7.10;;;3.42;;
68176;SDS011;56478;50.982;7.032;2023-08-31T01:47:02;5.03;;;3.65;;
68176;SDS011;56478;50.982;7.032;2023-08-31T01:49:35;11.57;;;3.65;;
68176;SDS011;56478;50.982;7.032;2023-08-31T01:52:04;8.98;;;4.00;;
68176;SDS011;56478;50.982;7.032;2023-08-31T01:54:29;6.00;;;4.05;;
68176;SDS011;56478;50.982;7.032;2023-08-31T01:56:55;7.20;;;3.80;;
68176;SDS011;56478;50.982;7.032;2023-08-31T01:59:21;4.85;;;3.63;;
68176;SDS011;56478;50.982;7.032;2023-08-31T02:01:46;5.03;;;4.00;;
68176;SDS011;56478;50.982;7.032;2023-08-31T02:04:12;5.95;;;3.78;;
68176;SDS011;56478;50.982;7.032;2023-08-31T02:06:37;8.00;;;4.30;;
68176;SDS011;56478;50.982;7.032;2023-08-31T02:09:03;6.07;;;4.03;;
68176;SDS011;56478;50.982;7.032;2023-08-31T02:11:28;9.27;;;3.88;;
68176;SDS011;56478;50.982;7.032;2023-08-31T02:13:54;7.18;;;3.92;;
68176;SDS011;56478;50.982;7.032;2023-08-31T02:16:19;5.22;;;3.40;;
68176;SDS011;56478;50.982;7.032;2023-08-31T02:18:45;5.80;;;3.55;;
68176;SDS011;56478;50.982;7.032;2023-08-31T02:21:10;3.92;;;3.40;;
68176;SDS011;56478;50.982;7.032;2023-08-31T02:23:36;4.20;;;3.60;;
68176;SDS011;56478;50.982;7.032;2023-08-31T02:26:01;6.80;;;3.70;;
68176;SDS011;56478;50.982;7.032;2023-08-31T02:28:27;6.32;;;3.75;;
68176;SDS011;56478;50.982;7.032;2023-08-31T02:30:59;6.78;;;3.80;;
68176;SDS011;56478;50.982;7.032;2023-08-31T02:33:26;6.05;;;3.58;;
68176;SDS011;56478;50.982;7.032;2023-08-31T02:35:51;5.82;;;3.45;;
68176;SDS011;56478;50.982;7.032;2023-08-31T02:38:18;6.38;;;3.65;;
68176;SDS011;56478;50.982;7.032;2023-08-31T02:40:45;7.03;;;3.55;;
68176;SDS011;56478;50.982;7.032;2023-08-31T02:43:11;6.82;;;3.45;;
68176;SDS011;56478;50.982;7.032;2023-08-31T02:45:38;8.48;;;3.30;;
68176;SDS011;56478;50.982;7.032;2023-08-31T02:48:03;5.63;;;3.30;;
68176;SDS011;56478;50.982;7.032;2023-08-31T02:50:31;6.38;;;3.53;;
68176;SDS011;56478;50.982;7.032;2023-08-31T02:52:56;6.95;;;3.70;;
68176;SDS011;56478;50.982;7.032;2023-08-31T02:55:22;13.25;;;3.30;;
68176;SDS011;56478;50.982;7.032;2023-08-31T02:57:48;6.40;;;3.65;;
68176;SDS011;56478;50.982;7.032;2023-08-31T03:00:13;6.38;;;3.40;;
68176;SDS011;56478;50.982;7.032;2023-08-31T03:02:40;9.20;;;4.07;;
68176;SDS011;56478;50.982;7.032;2023-08-31T03:05:05;5.75;;;3.78;;
68176;SDS011;56478;50.982;7.032;2023-08-31T03:07:31;6.28;;;3.72;;
68176;SDS011;56478;50.982;7.032;2023-08-31T03:09:57;7.03;;;3.60;;
68176;SDS011;56478;50.982;7.032;2023-08-31T03:12:23;8.77;;;3.72;;
68176;SDS011;56478;50.982;7.032;2023-08-31T03:14:48;4.78;;;3.60;;
68176;SDS011;56478;50.982;7.032;2023-08-31T03:17:14;5.15;;;3.70;;
68176;SDS011;56478;50.982;7.032;2023-08-31T03:19:39;10.23;;;3.80;;
68176;SDS011;56478;50.982;7.032;2023-08-31T03:22:05;5.72;;;3.83;;
68176;SDS011;56478;50.982;7.032;2023-08-31T03:24:31;6.07;;;3.50;;
68176;SDS011;56478;50.982;7.032;2023-08-31T03:26:57;4.45;;;3.85;;
68176;SDS011;56478;50.982;7.032;2023-08-31T03:29:24;6.45;;;3.80;;
68176;SDS011;56478;50.982;7.032;2023-08-31T03:31:49;5.03;;;3.78;;
68176;SDS011;56478;50.982;7.032;2023-08-31T03:34:15;6.18;;;3.70;;
68176;SDS011;56478;50.982;7.032;2023-08-31T03:36:41;4.75;;;3.70;;
68176;SDS011;56478;50.982;7.032;2023-08-31T03:39:06;4.32;;;3.80;;
68176;SDS011;56478;50.982;7.032;2023-08-31T03:41:32;5.25;;;3.50;;
68176;SDS011;56478;50.982;7.032;2023-08-31T03:43:57;9.20;;;3.75;;
68176;SDS011;56478;50.982;7.032;2023-08-31T03:46:23;6.55;;;3.80;;
68176;SDS011;56478;50.982;7.032;2023-08-31T03:48:49;6.85;;;3.67;;
68176;SDS011;56478;50.982;7.032;2023-08-31T03:51:15;5.25;;;3.72;;
68176;SDS011;56478;50.982;7.032;2023-08-31T03:53:40;8.32;;;3.40;;
68176;SDS011;56478;50.982;7.032;2023-08-31T03:56:06;5.20;;;3.65;;
68176;SDS011;56478;50.982;7.032;2023-08-31T03:58:31;4.82;;;3.45;;
68176;SDS011;56478;50.982;7.032;2023-08-31T04:00:57;3.92;;;3.53;;
68176;SDS011;56478;50.982;7.032;2023-08-31T04:03:22;5.60;;;3.20;;
68176;SDS011;56478;50.982;7.032;2023-08-31T04:05:53;5.40;;;3.30;;
68176;SDS011;56478;50.982;7.032;2023-08-31T04:08:19;5.80;;;3.63;;
68176;SDS011;56478;50.982;7.032;2023-08-31T04:10:44;4.78;;;3.42;;
68176;SDS011;56478;50.982;7.032;2023-08-31T04:13:10;4.85;;;3.30;;
68176;SDS011;56478;50.982;7.032;2023-08-31T04:15:35;10.70;;;3.53;;
68176;SDS011;56478;50.982;7.032;2023-08-31T04:18:01;5.63;;;3.60;;
68176;SDS011;56478;50.982;7.032;2023-08-31T04:20:27;7.10;;;3.88;;
68176;SDS011;56478;50.982;7.032;2023-08-31T04:22:52;7.80;;;3.80;;
68176;SDS011;56478;50.982;7.032;2023-08-31T04:25:18;10.00;;;3.60;;
68176;SDS011;56478;50.982;7.032;2023-08-31T04:27:43;4.85;;;3.65;;
68176;SDS011;56478;50.982;7.032;2023-08-31T04:30:11;8.70;;;3.83;;
68176;SDS011;56478;50.982;7.032;2023-08-31T04:32:37;6.45;;;3.80;;
68176;SDS011;56478;50.982;7.032;2023-08-31T04:35:03;6.35;;;4.00;;
68176;SDS011;56478;50.982;7.032;2023-08-31T04:37:30;5.20;;;3.50;;
68176;SDS011;56478;50.982;7.032;2023-08-31T04:39:57;6.03;;;3.80;;
68176;SDS011;56478;50.982;7.032;2023-08-31T04:42:23;5.85;;;3.92;;
68176;SDS011;56478;50.982;7.032;2023-08-31T04:44:49;6.93;;;3.60;;
68176;SDS011;56478;50.982;7.032;2023-08-31T04:47:15;4.32;;;3.55;;
68176;SDS011;56478;50.982;7.032;2023-08-31T04:49:41;5.07;;;3.67;;
68176;SDS011;56478;50.982;7.032;2023-08-31T04:52:06;6.85;;;3.42;;
68176;SDS011;56478;50.982;7.032;2023-08-31T04:54:32;4.70;;;3.50;;
68176;SDS011;56478;50.982;7.032;2023-08-31T04:56:57;4.65;;;3.30;;
68176;SDS011;56478;50.982;7.032;2023-08-31T04:59:23;3.80;;;3.40;;
68176;SDS011;56478;50.982;7.032;2023-08-31T05:01:49;4.97;;;3.75;;
68176;SDS011;56478;50.982;7.032;2023-08-31T05:04:14;4.15;;;3.35;;
68176;SDS011;56478;50.982;7.032;2023-08-31T05:06:40;6.55;;;3.60;;
68176;SDS011;56478;50.982;7.032;2023-08-31T05:09:05;7.07;;;3.60;;
68176;SDS011;56478;50.982;7.032;2023-08-31T05:11:31;6.15;;;3.40;;
68176;SDS011;56478;50.982;7.032;2023-08-31T05:13:57;4.00;;;3.58;;
68176;SDS011;56478;50.982;7.032;2023-08-31T05:16:22;4.75;;;3.45;;
68176;SDS011;56478;50.982;7.032;2023-08-31T05:18:48;7.15;;;3.70;;
68176;SDS011;56478;50.982;7.032;2023-08-31T05:21:14;7.40;;;3.63;;
68176;SDS011;56478;50.982;7.032;2023-08-31T05:23:40;5.47;;;3.90;;
68176;SDS011;56478;50.982;7.032;2023-08-31T05:26:06;4.18;;;3.47;;
68176;SDS011;56478;50.982;7.032;2023-08-31T05:28:31;4.28;;;3.60;;
68176;SDS011;56478;50.982;7.032;2023-08-31T05:30:57;6.88;;;3.40;;
68176;SDS011;56478;50.982;7.032;2023-08-31T05:33:25;4.75;;;4.00;;
68176;SDS011;56478;50.982;7.032;2023-08-31T05:35:52;6.25;;;3.95;;
68176;SDS011;56478;50.982;7.032;2023-08-31T05:38:18;4.00;;;3.60;;
68176;SDS011;56478;50.982;7.032;2023-08-31T05:40:44;8.15;;;3.60;;
68176;SDS011;56478;50.982;7.032;2023-08-31T05:43:14;6.25;;;3.30;;
68176;SDS011;56478;50.982;7.032;2023-08-31T05:45:40;6.70;;;3.70;;
68176;SDS011;56478;50.982;7.032;2023-08-31T05:48:06;4.70;;;3.65;;
68176;SDS011;56478;50.982;7.032;2023-08-31T05:50:32;4.68;;;3.42;;
68176;SDS011;56478;50.982;7.032;2023-08-31T05:52:58;6.13;;;3.60;;
68176;SDS011;56478;50.982;7.032;2023-08-31T05:55:24;7.40;;;3.17;;
68176;SDS011;56478;50.982;7.032;2023-08-31T05:57:49;3.85;;;3.20;;
68176;SDS011;56478;50.982;7.032;2023-08-31T06:00:15;10.63;;;3.42;;
68176;SDS011;56478;50.982;7.032;2023-08-31T06:02:42;5.97;;;3.55;;
68176;SDS011;56478;50.982;7.032;2023-08-31T06:05:09;8.55;;;3.60;;
68176;SDS011;56478;50.982;7.032;2023-08-31T06:07:37;6.90;;;3.30;;
68176;SDS011;56478;50.982;7.032;2023-08-31T06:10:03;6.00;;;4.10;;
68176;SDS011;56478;50.982;7.032;2023-08-31T06:12:30;8.00;;;3.55;;
68176;SDS011;56478;50.982;7.032;2023-08-31T06:14:56;4.47;;;3.40;;
68176;SDS011;56478;50.982;7.032;2023-08-31T06:17:22;4.45;;;3.20;;
68176;SDS011;56478;50.982;7.032;2023-08-31T06:19:47;8.35;;;3.33;;
68176;SDS011;56478;50.982;7.032;2023-08-31T06:22:13;8.63;;;3.72;;
68176;SDS011;56478;50.982;7.032;2023-08-31T06:24:38;7.90;;;3.40;;
68176;SDS011;56478;50.982;7.032;2023-08-31T06:27:04;7.43;;;3.28;;
68176;SDS011;56478;50.982;7.032;2023-08-31T06:29:30;5.78;;;2.97;;
68176;SDS011;56478;50.982;7.032;2023-08-31T06:31:55;3.95;;;2.70;;
68176;SDS011;56478;50.982;7.032;2023-08-31T06:34:21;6.75;;;2.53;;
68176;SDS011;56478;50.982;7.032;2023-08-31T06:36:46;5.95;;;2.75;;
68176;SDS011;56478;50.982;7.032;2023-08-31T06:39:12;4.47;;;2.70;;
68176;SDS011;56478;50.982;7.032;2023-08-31T06:41:37;5.97;;;2.50;;
68176;SDS011;56478;50.982;7.032;2023-08-31T06:44:03;4.45;;;2.13;;
68176;SDS011;56478;50.982;7.032;2023-08-31T06:46:29;4.88;;;2.22;;
68176;SDS011;56478;50.982;7.032;2023-08-31T06:48:59;5.70;;;2.28;;
68176;SDS011;56478;50.982;7.032;2023-08-31T06:51:24;4.78;;;2.10;;
68176;SDS011;56478;50.982;7.032;2023-08-31T06:53:50;4.82;;;2.20;;
68176;SDS011;56478;50.982;7.032;2023-08-31T06:56:16;4.18;;;2.15;;
68176;SDS011;56478;50.982;7.032;2023-08-31T06:58:41;5.05;;;2.50;;
68176;SDS011;56478;50.982;7.032;2023-08-31T07:01:08;2.75;;;2.30;;
68176;SDS011;56478;50.982;7.032;2023-08-31T07:03:33;4.35;;;2.33;;
68176;SDS011;56478;50.982;7.032;2023-08-31T07:05:59;4.05;;;2.30;;
68176;SDS011;56478;50.982;7.032;2023-08-31T07:08:25;4.30;;;2.10;;
68176;SDS011;56478;50.982;7.032;2023-08-31T07:10:50;4.57;;;2.40;;
68176;SDS011;56478;50.982;7.032;2023-08-31T07:13:16;5.10;;;2.20;;
68176;SDS011;56478;50.982;7.032;2023-08-31T07:15:41;2.92;;;2.10;;
68176;SDS011;56478;50.982;7.032;2023-08-31T07:18:07;3.42;;;2.15;;
68176;SDS011;56478;50.982;7.032;2023-08-31T07:20:33;2.50;;;2.30;;
68176;SDS011;56478;50.982;7.032;2023-08-31T07:22:58;6.63;;;2.33;;
68176;SDS011;56478;50.982;7.032;2023-08-31T07:25:24;3.60;;;2.13;;
68176;SDS011;56478;50.982;7.032;2023-08-31T07:27:50;4.53;;;2.20;;
68176;SDS011;56478;50.982;7.032;2023-08-31T07:30:16;3.40;;;2.42;;
68176;SDS011;56478;50.982;7.032;2023-08-31T07:32:41;3.08;;;2.30;;
68176;SDS011;56478;50.982;7.032;2023-08-31T07:35:07;2.95;;;2.00;;
68176;SDS011;56478;50.982;7.032;2023-08-31T07:37:32;4.65;;;2.10;;
68176;SDS011;56478;50.982;7.032;2023-08-31T07:39:58;6.80;;;2.25;;
68176;SDS011;56478;50.982;7.032;2023-08-31T07:42:23;2.45;;;1.92;;
68176;SDS011;56478;50.982;7.032;2023-08-31T07:44:49;2.42;;;1.90;;
68176;SDS011;56478;50.982;7.032;2023-08-31T07:47:14;4.82;;;1.90;;
68176;SDS011;56478;50.982;7.032;2023-08-31T07:49:40;3.20;;;2.05;;
68176;SDS011;56478;50.982;7.032;2023-08-31T07:52:06;4.13;;;2.03;;
68176;SDS011;56478;50.982;7.032;2023-08-31T07:54:31;3.75;;;2.10;;
68176;SDS011;56478;50.982;7.032;2023-08-31T07:56:57;3.95;;;1.95;;
68176;SDS011;56478;50.982;7.032;2023-08-31T07:59:22;3.63;;;2.25;;
68176;SDS011;56478;50.982;7.032;2023-08-31T08:01:48;3.95;;;2.03;;
68176;SDS011;56478;50.982;7.032;2023-08-31T08:04:13;4.43;;;1.90;;
68176;SDS011;56478;50.982;7.032;2023-08-31T08:06:39;5.32;;;1.80;;
68176;SDS011;56478;50.982;7.032;2023-08-31T08:09:04;4.32;;;2.00;;
68176;SDS011;56478;50.982;7.032;2023-08-31T08:11:30;5.40;;;2.00;;
68176;SDS011;56478;50.982;7.032;2023-08-31T08:13:56;2.85;;;1.98;;
68176;SDS011;56478;50.982;7.032;2023-08-31T08:16:22;3.10;;;1.90;;
68176;SDS011;56478;50.982;7.032;2023-08-31T08:18:47;4.50;;;1.92;;
68176;SDS011;56478;50.982;7.032;2023-08-31T08:21:13;8.55;;;2.20;;
68176;SDS011;56478;50.982;7.032;2023-08-31T08:23:38;6.00;;;1.88;;
68176;SDS011;56478;50.982;7.032;2023-08-31T08:26:04;4.38;;;2.10;;
68176;SDS011;56478;50.982;7.032;2023-08-31T08:28:29;4.20;;;1.83;;
68176;SDS011;56478;50.982;7.032;2023-08-31T08:30:55;9.43;;;1.92;;
68176;SDS011;56478;50.982;7.032;2023-08-31T08:33:20;2.78;;;1.90;;
68176;SDS011;56478;50.982;7.032;2023-08-31T08:35:46;3.83;;;2.10;;
68176;SDS011;56478;50.982;7.032;2023-08-31T08:38:12;3.95;;;2.10;;
68176;SDS011;56478;50.982;7.032;2023-08-31T08:40:37;3.13;;;2.10;;
68176;SDS011;56478;50.982;7.032;2023-08-31T08:43:06;4.35;;;2.20;;
68176;SDS011;56478;50.982;7.032;2023-08-31T08:45:36;4.95;;;1.90;;
68176;SDS011;56478;50.982;7.032;2023-08-31T08:48:05;3.85;;;1.90;;
68176;SDS011;56478;50.982;7.032;2023-08-31T08:50:32;3.80;;;2.03;;
68176;SDS011;56478;50.982;7.032;2023-08-31T08:53:02;5.03;;;2.00;;
68176;SDS011;56478;50.982;7.032;2023-08-31T08:55:28;3.78;;;1.95;;
68176;SDS011;56478;50.982;7.032;2023-08-31T08:57:53;7.30;;;2.03;;
68176;SDS011;56478;50.982;7.032;2023-08-31T09:00:19;3.22;;;1.83;;
68176;SDS011;56478;50.982;7.032;2023-08-31T09:02:45;4.00;;;1.90;;
68176;SDS011;56478;50.982;7.032;2023-08-31T09:05:11;2.78;;;2.00;;
68176;SDS011;56478;50.982;7.032;2023-08-31T09:07:36;2.45;;;1.80;;
68176;SDS011;56478;50.982;7.032;2023-08-31T09:10:02;3.95;;;2.03;;
68176;SDS011;56478;50.982;7.032;2023-08-31T09:12:29;6.35;;;2.15;;
68176;SDS011;56478;50.982;7.032;2023-08-31T09:17:24;2.80;;;1.80;;
68176;SDS011;56478;50.982;7.032;2023-08-31T09:19:58;4.95;;;2.10;;
68176;SDS011;56478;50.982;7.032;2023-08-31T09:22:29;3.03;;;1.80;;
68176;SDS011;56478;50.982;7.032;2023-08-31T09:24:56;3.75;;;1.92;;
68176;SDS011;56478;50.982;7.032;2023-08-31T09:27:22;5.53;;;2.05;;
68176;SDS011;56478;50.982;7.032;2023-08-31T09:29:49;4.22;;;1.67;;
68176;SDS011;56478;50.982;7.032;2023-08-31T09:32:18;3.42;;;2.00;;
68176;SDS011;56478;50.982;7.032;2023-08-31T09:34:44;2.88;;;1.67;;
68176;SDS011;56478;50.982;7.032;2023-08-31T09:37:10;3.78;;;2.08;;
68176;SDS011;56478;50.982;7.032;2023-08-31T09:39:36;2.45;;;1.75;;
68176;SDS011;56478;50.982;7.032;2023-08-31T09:42:02;6.88;;;2.00;;
68176;SDS011;56478;50.982;7.032;2023-08-31T09:44:28;4.25;;;1.70;;
68176;SDS011;56478;50.982;7.032;2023-08-31T09:46:53;2.58;;;1.63;;
68176;SDS011;56478;50.982;7.032;2023-08-31T09:49:20;4.65;;;1.92;;
68176;SDS011;56478;50.982;7.032;2023-08-31T09:51:49;4.82;;;2.03;;
68176;SDS011;56478;50.982;7.032;2023-08-31T09:54:16;6.82;;;1.85;;
68176;SDS011;56478;50.982;7.032;2023-08-31T09:59:10;3.05;;;2.03;;
68176;SDS011;56478;50.982;7.032;2023-08-31T10:01:37;5.50;;;2.10;;
68176;SDS011;56478;50.982;7.032;2023-08-31T10:04:03;5.70;;;1.80;;
68176;SDS011;56478;50.982;7.032;2023-08-31T10:08:57;3.90;;;1.80;;
68176;SDS011;56478;50.982;7.032;2023-08-31T10:11:23;3.55;;;2.00;;
68176;SDS011;56478;50.982;7.032;2023-08-31T10:13:50;4.53;;;1.80;;
68176;SDS011;56478;50.982;7.032;2023-08-31T10:16:17;3.53;;;2.05;;
68176;SDS011;56478;50.982;7.032;2023-08-31T10:18:44;2.28;;;1.90;;
68176;SDS011;56478;50.982;7.032;2023-08-31T10:21:09;2.92;;;1.77;;
68176;SDS011;56478;50.982;7.032;2023-08-31T10:23:35;2.58;;;1.92;;
68176;SDS011;56478;50.982;7.032;2023-08-31T10:26:01;3.00;;;1.70;;
68176;SDS011;56478;50.982;7.032;2023-08-31T10:28:28;2.42;;;1.80;;
68176;SDS011;56478;50.982;7.032;2023-08-31T10:31:01;2.78;;;1.90;;
68176;SDS011;56478;50.982;7.032;2023-08-31T10:33:33;4.68;;;1.80;;
68176;SDS011;56478;50.982;7.032;2023-08-31T10:35:58;5.65;;;1.83;;
68176;SDS011;56478;50.982;7.032;2023-08-31T10:38:28;3.40;;;1.80;;
68176;SDS011;56478;50.982;7.032;2023-08-31T10:41:01;4.75;;;1.90;;
68176;SDS011;56478;50.982;7.032;2023-08-31T10:43:27;7.22;;;1.92;;
68176;SDS011;56478;50.982;7.032;2023-08-31T10:46:17;4.55;;;2.00;;
68176;SDS011;56478;50.982;7.032;2023-08-31T10:51:28;3.45;;;1.90;;
68176;SDS011;56478;50.982;7.032;2023-08-31T10:54:03;6.85;;;2.15;;
68176;SDS011;56478;50.982;7.032;2023-08-31T10:59:16;3.63;;;1.90;;
68176;SDS011;56478;50.982;7.032;2023-08-31T11:01:52;3.80;;;1.80;;
68176;SDS011;56478;50.982;7.032;2023-08-31T11:04:27;4.38;;;1.80;;
68176;SDS011;56478;50.982;7.032;2023-08-31T11:09:38;2.95;;;1.90;;
68176;SDS011;56478;50.982;7.032;2023-08-31T11:12:04;2.28;;;1.90;;
68176;SDS011;56478;50.982;7.032;2023-08-31T11:14:30;3.92;;;1.80;;
68176;SDS011;56478;50.982;7.032;2023-08-31T11:16:56;3.38;;;2.10;;
68176;SDS011;56478;50.982;7.032;2023-08-31T11:19:21;3.70;;;1.83;;
68176;SDS011;56478;50.982;7.032;2023-08-31T11:21:47;5.00;;;1.90;;
68176;SDS011;56478;50.982;7.032;2023-08-31T11:24:13;6.50;;;2.20;;
68176;SDS011;56478;50.982;7.032;2023-08-31T11:26:41;3.00;;;1.90;;
68176;SDS011;56478;50.982;7.032;2023-08-31T11:29:07;3.72;;;1.80;;
68176;SDS011;56478;50.982;7.032;2023-08-31T11:31:37;3.88;;;2.00;;
68176;SDS011;56478;50.982;7.032;2023-08-31T11:34:05;3.28;;;1.98;;
68176;SDS011;56478;50.982;7.032;2023-08-31T11:36:32;4.80;;;2.00;;
68176;SDS011;56478;50.982;7.032;2023-08-31T11:38:58;5.90;;;2.13;;
68176;SDS011;56478;50.982;7.032;2023-08-31T11:41:23;5.30;;;2.15;;
68176;SDS011;56478;50.982;7.032;2023-08-31T11:43:50;4.50;;;1.98;;
68176;SDS011;56478;50.982;7.032;2023-08-31T11:46:16;4.13;;;2.00;;
68176;SDS011;56478;50.982;7.032;2023-08-31T11:48:43;3.50;;;2.00;;
68176;SDS011;56478;50.982;7.032;2023-08-31T11:51:10;3.17;;;1.90;;
68176;SDS011;56478;50.982;7.032;2023-08-31T11:53:36;5.55;;;2.10;;
68176;SDS011;56478;50.982;7.032;2023-08-31T11:56:02;3.33;;;2.03;;
68176;SDS011;56478;50.982;7.032;2023-08-31T11:58:28;5.50;;;2.53;;
68176;SDS011;56478;50.982;7.032;2023-08-31T12:00:54;7.32;;;2.30;;
68176;SDS011;56478;50.982;7.032;2023-08-31T12:03:21;5.55;;;2.33;;
68176;SDS011;56478;50.982;7.032;2023-08-31T12:05:47;4.63;;;2.20;;
68176;SDS011;56478;50.982;7.032;2023-08-31T12:08:16;7.15;;;2.25;;
68176;SDS011;56478;50.982;7.032;2023-08-31T12:10:50;2.75;;;1.77;;
68176;SDS011;56478;50.982;7.032;2023-08-31T12:13:15;3.63;;;2.00;;
68176;SDS011;56478;50.982;7.032;2023-08-31T12:15:40;3.83;;;1.90;;
68176;SDS011;56478;50.982;7.032;2023-08-31T12:18:07;3.22;;;1.95;;
68176;SDS011;56478;50.982;7.032;2023-08-31T12:20:42;2.88;;;1.83;;
68176;SDS011;56478;50.982;7.032;2023-08-31T12:23:09;2.53;;;1.92;;
68176;SDS011;56478;50.982;7.032;2023-08-31T12:25:35;2.20;;;1.70;;
68176;SDS011;56478;50.982;7.032;2023-08-31T12:28:00;2.78;;;1.80;;
68176;SDS011;56478;50.982;7.032;2023-08-31T12:30:27;7.30;;;2.03;;
68176;SDS011;56478;50.982;7.032;2023-08-31T12:32:53;4.20;;;1.95;;
68176;SDS011;56478;50.982;7.032;2023-08-31T12:35:18;7.20;;;2.05;;
68176;SDS011;56478;50.982;7.032;2023-08-31T12:37:43;4.97;;;2.08;;
68176;SDS011;56478;50.982;7.032;2023-08-31T12:40:09;5.03;;;2.10;;
68176;SDS011;56478;50.982;7.032;2023-08-31T12:42:35;3.60;;;2.20;;
68176;SDS011;56478;50.982;7.032;2023-08-31T12:45:01;4.30;;;2.03;;
68176;SDS011;56478;50.982;7.032;2023-08-31T12:47:27;3.95;;;2.30;;
68176;SDS011;56478;50.982;7.032;2023-08-31T12:49:53;5.50;;;2.13;;
68176;SDS011;56478;50.982;7.032;2023-08-31T12:52:18;2.60;;;1.90;;
68176;SDS011;56478;50.982;7.032;2023-08-31T12:54:43;6.82;;;1.90;;
68176;SDS011;56478;50.982;7.032;2023-08-31T12:57:09;4.15;;;1.80;;
68176;SDS011;56478;50.982;7.032;2023-08-31T12:59:34;2.25;;;1.73;;
68176;SDS011;56478;50.982;7.032;2023-08-31T13:02:00;2.95;;;1.92;;
68176;SDS011;56478;50.982;7.032;2023-08-31T13:04:28;3.00;;;1.77;;
68176;SDS011;56478;50.982;7.032;2023-08-31T13:06:54;2.10;;;1.92;;
68176;SDS011;56478;50.982;7.032;2023-08-31T13:09:19;4.57;;;1.90;;
68176;SDS011;56478;50.982;7.032;2023-08-31T13:11:45;2.75;;;1.88;;
68176;SDS011;56478;50.982;7.032;2023-08-31T13:14:10;3.47;;;1.95;;
68176;SDS011;56478;50.982;7.032;2023-08-31T13:16:36;2.20;;;1.85;;
68176;SDS011;56478;50.982;7.032;2023-08-31T13:19:04;3.55;;;1.90;;
68176;SDS011;56478;50.982;7.032;2023-08-31T13:21:30;3.13;;;1.83;;
68176;SDS011;56478;50.982;7.032;2023-08-31T13:23:55;4.30;;;1.92;;
68176;SDS011;56478;50.982;7.032;2023-08-31T13:26:21;3.95;;;1.90;;
68176;SDS011;56478;50.982;7.032;2023-08-31T13:28:46;4.85;;;1.83;;
68176;SDS011;56478;50.982;7.032;2023-08-31T13:31:12;3.72;;;1.90;;
68176;SDS011;56478;50.982;7.032;2023-08-31T13:33:37;3.22;;;2.05;;
68176;SDS011;56478;50.982;7.032;2023-08-31T13:36:03;4.15;;;2.10;;
68176;SDS011;56478;50.982;7.032;2023-08-31T13:38:28;2.35;;;2.10;;
68176;SDS011;56478;50.982;7.032;2023-08-31T13:40:54;6.35;;;2.20;;
68176;SDS011;56478;50.982;7.032;2023-08-31T13:43:24;4.18;;;2.13;;
68176;SDS011;56478;50.982;7.032;2023-08-31T13:45:50;3.90;;;1.98;;
68176;SDS011;56478;50.982;7.032;2023-08-31T13:48:15;5.75;;;2.35;;
68176;SDS011;56478;50.982;7.032;2023-08-31T13:50:41;4.03;;;2.17;;
68176;SDS011;56478;50.982;7.032;2023-08-31T13:53:07;5.95;;;2.13;;
68176;SDS011;56478;50.982;7.032;2023-08-31T13:55:33;5.13;;;2.20;;
68176;SDS011;56478;50.982;7.032;2023-08-31T13:58:06;2.88;;;2.20;;
68176;SDS011;56478;50.982;7.032;2023-08-31T14:00:33;4.63;;;2.05;;
68176;SDS011;56478;50.982;7.032;2023-08-31T14:02:59;4.05;;;2.28;;
68176;SDS011;56478;50.982;7.032;2023-08-31T14:05:28;5.82;;;2.28;;
68176;SDS011;56478;50.982;7.032;2023-08-31T14:07:55;5.30;;;2.35;;
68176;SDS011;56478;50.982;7.032;2023-08-31T14:10:21;5.40;;;2.20;;
68176;SDS011;56478;50.982;7.032;2023-08-31T14:12:46;3.83;;;2.03;;
68176;SDS011;56478;50.982;7.032;2023-08-31T14:15:12;2.72;;;2.03;;
68176;SDS011;56478;50.982;7.032;2023-08-31T14:17:38;4.63;;;2.13;;
68176;SDS011;56478;50.982;7.032;2023-08-31T14:20:04;3.92;;;2.25;;
68176;SDS011;56478;50.982;7.032;2023-08-31T14:22:33;3.45;;;2.05;;
68176;SDS011;56478;50.982;7.032;2023-08-31T14:24:59;3.80;;;1.83;;
68176;SDS011;56478;50.982;7.032;2023-08-31T14:27:28;4.90;;;2.13;;
68176;SDS011;56478;50.982;7.032;2023-08-31T14:29:56;5.78;;;2.00;;
68176;SDS011;56478;50.982;7.032;2023-08-31T14:32:23;7.10;;;2.03;;
68176;SDS011;56478;50.982;7.032;2023-08-31T14:34:48;4.93;;;2.30;;
68176;SDS011;56478;50.982;7.032;2023-08-31T14:37:14;4.80;;;2.22;;
68176;SDS011;56478;50.982;7.032;2023-08-31T14:39:40;2.88;;;1.80;;
68176;SDS011;56478;50.982;7.032;2023-08-31T14:42:06;1.90;;;1.80;;
68176;SDS011;56478;50.982;7.032;2023-08-31T14:44:31;4.22;;;2.08;;
68176;SDS011;56478;50.982;7.032;2023-08-31T14:46:57;2.42;;;2.00;;
68176;SDS011;56478;50.982;7.032;2023-08-31T14:49:23;6.13;;;2.20;;
68176;SDS011;56478;50.982;7.032;2023-08-31T14:51:50;5.53;;;2.20;;
68176;SDS011;56478;50.982;7.032;2023-08-31T14:54:16;4.40;;;2.20;;
68176;SDS011;56478;50.982;7.032;2023-08-31T14:56:41;3.42;;;2.10;;
68176;SDS011;56478;50.982;7.032;2023-08-31T14:59:07;2.70;;;2.10;;
68176;SDS011;56478;50.982;7.032;2023-08-31T15:01:34;2.80;;;1.90;;
68176;SDS011;56478;50.982;7.032;2023-08-31T15:03:59;4.82;;;2.20;;
68176;SDS011;56478;50.982;7.032;2023-08-31T15:06:25;3.58;;;1.85;;